Current Weather

Ndjamena Hassan Djamous

Ndjamena Hassan Djamous, Chad (FTTJ)

Report from: Wednesday, April 24, 2024 8:00 PM WAT
Current time: Wednesday, April 24, 2024 9:05 PM WAT

Nearby weather – Weather history – Daily summaries
Weather forecast

Temperature39.0°C (102.2°F)
Heat index36.1°C (97.0°F)
Dew point2.0°C (35.6°F)
Winds 5 kts (2.6 m/s, 5.8 mph) West (270°)
Visibility3.7 mi. (6 km)
Altimeter29.62 in.Hg (1003 mB)
Relative humidity10 %
Density altitude3,154 ft. (961 m)
Remarks No significant changes expected in the next two hours
Flight conditions Marginal Visual Meteorological Conditions
Raw dataFTTJ 241900Z 27005KT 6000 NSC 39/02 Q1003 NOSIG
An error has occurred. This application may no longer respond until reloaded. Reload 🗙